sensor_id;sensor_type;location;lat;lon;timestamp;pressure;altitude;pressure_sealevel;temperature;humidity
21129;BME280;10722;51.910;8.352;2022-07-24T00:00:08;101303.47;;;17.08;95.64
21129;BME280;10722;51.910;8.352;2022-07-24T00:02:53;101306.09;;;17.16;96.22
21129;BME280;10722;51.910;8.352;2022-07-24T00:05:39;101311.31;;;17.16;97.07
21129;BME280;10722;51.910;8.352;2022-07-24T00:08:24;101304.34;;;17.13;96.37
21129;BME280;10722;51.910;8.352;2022-07-24T00:11:11;101296.50;;;17.09;96.12
21129;BME280;10722;51.910;8.352;2022-07-24T00:13:56;101299.13;;;17.06;96.32
21129;BME280;10722;51.910;8.352;2022-07-24T00:16:42;101306.97;;;17.06;96.44
21129;BME280;10722;51.910;8.352;2022-07-24T00:19:27;101297.38;;;17.06;95.71
21129;BME280;10722;51.910;8.352;2022-07-24T00:22:13;101308.72;;;17.07;96.89
21129;BME280;10722;51.910;8.352;2022-07-24T00:24:58;101307.84;;;17.05;96.71
21129;BME280;10722;51.910;8.352;2022-07-24T00:27:43;101298.25;;;17.00;95.72
21129;BME280;10722;51.910;8.352;2022-07-24T00:30:28;101299.13;;;17.04;95.88
21129;BME280;10722;51.910;8.352;2022-07-24T00:33:13;101296.50;;;17.02;94.17
21129;BME280;10722;51.910;8.352;2022-07-24T00:35:59;101301.75;;;17.04;94.18
21129;BME280;10722;51.910;8.352;2022-07-24T00:38:44;101291.25;;;17.09;93.59
21129;BME280;10722;51.910;8.352;2022-07-24T00:41:29;101283.44;;;17.07;92.46
21129;BME280;10722;51.910;8.352;2022-07-24T00:44:15;101283.44;;;17.09;92.03
21129;BME280;10722;51.910;8.352;2022-07-24T00:47:00;101289.53;;;17.15;92.39
21129;BME280;10722;51.910;8.352;2022-07-24T00:49:45;101306.94;;;17.22;93.45
21129;BME280;10722;51.910;8.352;2022-07-24T00:52:31;101300.84;;;17.25;94.28
21129;BME280;10722;51.910;8.352;2022-07-24T00:55:17;101305.22;;;17.21;95.11
21129;BME280;10722;51.910;8.352;2022-07-24T00:58:02;101301.72;;;17.12;95.40
21129;BME280;10722;51.910;8.352;2022-07-24T01:00:48;101306.09;;;17.08;95.77
21129;BME280;10722;51.910;8.352;2022-07-24T01:03:33;101316.53;;;17.02;96.70
21129;BME280;10722;51.910;8.352;2022-07-24T01:06:19;101294.75;;;16.88;95.33
21129;BME280;10722;51.910;8.352;2022-07-24T01:09:04;101294.75;;;16.91;95.29
21129;BME280;10722;51.910;8.352;2022-07-24T01:11:50;101300.00;;;16.91;95.54
21129;BME280;10722;51.910;8.352;2022-07-24T01:14:36;101298.25;;;16.94;95.07
21129;BME280;10722;51.910;8.352;2022-07-24T01:17:22;101281.69;;;16.94;95.37
21129;BME280;10722;51.910;8.352;2022-07-24T01:20:08;101296.53;;;17.01;95.04
21129;BME280;10722;51.910;8.352;2022-07-24T01:22:54;101286.91;;;16.97;94.73
21129;BME280;10722;51.910;8.352;2022-07-24T01:25:40;101289.56;;;16.98;95.25
21129;BME280;10722;51.910;8.352;2022-07-24T01:28:25;101279.06;;;16.89;94.61
21129;BME280;10722;51.910;8.352;2022-07-24T01:31:11;101277.34;;;16.93;94.54
21129;BME280;10722;51.910;8.352;2022-07-24T01:33:56;101279.94;;;16.91;94.64
21129;BME280;10722;51.910;8.352;2022-07-24T01:36:41;101273.84;;;16.86;94.54
21129;BME280;10722;51.910;8.352;2022-07-24T01:39:27;101273.84;;;16.89;94.62
21129;BME280;10722;51.910;8.352;2022-07-24T01:42:12;101278.22;;;16.90;94.80
21129;BME280;10722;51.910;8.352;2022-07-24T01:44:58;101273.84;;;16.89;94.31
21129;BME280;10722;51.910;8.352;2022-07-24T01:47:43;101274.75;;;16.90;94.28
21129;BME280;10722;51.910;8.352;2022-07-24T01:50:29;101283.44;;;16.93;95.07
21129;BME280;10722;51.910;8.352;2022-07-24T01:53:15;101286.06;;;16.90;95.20
21129;BME280;10722;51.910;8.352;2022-07-24T01:56:01;101281.69;;;16.88;95.71
21129;BME280;10722;51.910;8.352;2022-07-24T01:58:46;101284.28;;;16.89;95.10
21129;BME280;10722;51.910;8.352;2022-07-24T02:01:31;101273.84;;;16.91;95.03
21129;BME280;10722;51.910;8.352;2022-07-24T02:04:16;101284.28;;;16.86;94.85
21129;BME280;10722;51.910;8.352;2022-07-24T02:07:02;101273.84;;;16.86;95.11
21129;BME280;10722;51.910;8.352;2022-07-24T02:09:47;101275.59;;;16.87;95.90
21129;BME280;10722;51.910;8.352;2022-07-24T02:12:33;101278.19;;;16.83;96.39
21129;BME280;10722;51.910;8.352;2022-07-24T02:15:18;101285.19;;;16.79;96.47
21129;BME280;10722;51.910;8.352;2022-07-24T02:18:04;101288.69;;;16.84;96.62
21129;BME280;10722;51.910;8.352;2022-07-24T02:20:49;101290.38;;;16.84;96.34
21129;BME280;10722;51.910;8.352;2022-07-24T02:23:34;101288.66;;;16.76;97.24
21129;BME280;10722;51.910;8.352;2022-07-24T02:26:20;101279.03;;;16.65;96.70
21129;BME280;10722;51.910;8.352;2022-07-24T02:29:04;101282.50;;;16.65;96.24
21129;BME280;10722;51.910;8.352;2022-07-24T02:31:50;101275.53;;;16.63;96.61
21129;BME280;10722;51.910;8.352;2022-07-24T02:34:36;101279.00;;;16.55;96.76
21129;BME280;10722;51.910;8.352;2022-07-24T02:37:21;101281.63;;;16.45;97.40
21129;BME280;10722;51.910;8.352;2022-07-24T02:40:08;101276.38;;;16.42;97.51
21129;BME280;10722;51.910;8.352;2022-07-24T02:42:54;101276.38;;;16.46;97.20
21129;BME280;10722;51.910;8.352;2022-07-24T02:45:39;101272.91;;;16.50;97.38
21129;BME280;10722;51.910;8.352;2022-07-24T02:48:24;101271.19;;;16.48;97.85
21129;BME280;10722;51.910;8.352;2022-07-24T02:51:09;101275.53;;;16.50;97.71
21129;BME280;10722;51.910;8.352;2022-07-24T02:53:55;101279.00;;;16.51;97.82
21129;BME280;10722;51.910;8.352;2022-07-24T02:56:40;101275.53;;;16.47;98.23
21129;BME280;10722;51.910;8.352;2022-07-24T02:59:25;101282.47;;;16.36;98.59
21129;BME280;10722;51.910;8.352;2022-07-24T03:02:10;101281.56;;;16.31;99.13
21129;BME280;10722;51.910;8.352;2022-07-24T03:04:55;101278.94;;;16.23;99.12
21129;BME280;10722;51.910;8.352;2022-07-24T03:07:41;101276.31;;;16.22;98.92
21129;BME280;10722;51.910;8.352;2022-07-24T03:10:26;101275.44;;;16.20;98.77
21129;BME280;10722;51.910;8.352;2022-07-24T03:13:11;101278.06;;;16.17;98.19
21129;BME280;10722;51.910;8.352;2022-07-24T03:15:57;101269.34;;;16.18;97.74
21129;BME280;10722;51.910;8.352;2022-07-24T03:18:42;101264.09;;;16.05;96.96
21129;BME280;10722;51.910;8.352;2022-07-24T03:21:28;101270.22;;;16.13;98.29
21129;BME280;10722;51.910;8.352;2022-07-24T03:24:32;101261.50;;;16.13;97.83
21129;BME280;10722;51.910;8.352;2022-07-24T03:27:17;101259.75;;;16.06;97.99
21129;BME280;10722;51.910;8.352;2022-07-24T03:30:04;101253.66;;;16.08;97.02
21129;BME280;10722;51.910;8.352;2022-07-24T03:32:49;101257.09;;;15.98;96.80
21129;BME280;10722;51.910;8.352;2022-07-24T03:35:34;101258.81;;;15.99;97.27
21129;BME280;10722;51.910;8.352;2022-07-24T03:38:20;101258.84;;;16.04;97.15
21129;BME280;10722;51.910;8.352;2022-07-24T03:41:05;101262.34;;;16.10;97.08
21129;BME280;10722;51.910;8.352;2022-07-24T03:43:51;101245.78;;;15.95;96.28
21129;BME280;10722;51.910;8.352;2022-07-24T03:46:36;101244.97;;;16.08;96.33
21129;BME280;10722;51.910;8.352;2022-07-24T03:49:21;101245.81;;;16.04;95.39
21129;BME280;10722;51.910;8.352;2022-07-24T03:52:08;101244.91;;;15.93;95.88
21129;BME280;10722;51.910;8.352;2022-07-24T03:54:56;101246.66;;;16.01;95.64
21129;BME280;10722;51.910;8.352;2022-07-24T03:57:41;101252.75;;;16.02;95.48
21129;BME280;10722;51.910;8.352;2022-07-24T04:00:26;101255.34;;;16.02;96.47
21129;BME280;10722;51.910;8.352;2022-07-24T04:03:12;101255.38;;;16.03;96.52
21129;BME280;10722;51.910;8.352;2022-07-24T04:06:00;101253.63;;;15.98;95.30
21129;BME280;10722;51.910;8.352;2022-07-24T04:08:45;101263.22;;;16.09;96.76
21129;BME280;10722;51.910;8.352;2022-07-24T04:11:30;101262.34;;;16.07;96.30
21129;BME280;10722;51.910;8.352;2022-07-24T04:14:16;101264.09;;;16.07;96.24
21129;BME280;10722;51.910;8.352;2022-07-24T04:17:01;101262.34;;;16.04;95.77
21129;BME280;10722;51.910;8.352;2022-07-24T04:19:47;101264.97;;;16.06;96.74
21129;BME280;10722;51.910;8.352;2022-07-24T04:22:33;101271.94;;;16.08;96.96
21129;BME280;10722;51.910;8.352;2022-07-24T04:25:23;101267.56;;;16.10;97.09
21129;BME280;10722;51.910;8.352;2022-07-24T04:28:08;101254.50;;;16.10;95.49
21129;BME280;10722;51.910;8.352;2022-07-24T04:30:53;101265.00;;;16.17;96.68
21129;BME280;10722;51.910;8.352;2022-07-24T04:33:39;101253.72;;;16.22;95.44
21129;BME280;10722;51.910;8.352;2022-07-24T04:36:24;101251.09;;;16.30;94.99
21129;BME280;10722;51.910;8.352;2022-07-24T04:39:09;101256.31;;;16.33;95.07
21129;BME280;10722;51.910;8.352;2022-07-24T04:41:55;101254.59;;;16.38;94.55
21129;BME280;10722;51.910;8.352;2022-07-24T04:44:40;101243.31;;;16.42;94.45
21129;BME280;10722;51.910;8.352;2022-07-24T04:47:25;101244.16;;;16.44;94.39
21129;BME280;10722;51.910;8.352;2022-07-24T04:50:11;101248.53;;;16.51;94.03
21129;BME280;10722;51.910;8.352;2022-07-24T04:52:58;101244.19;;;16.50;93.93
21129;BME280;10722;51.910;8.352;2022-07-24T04:55:44;101250.28;;;16.60;93.90
21129;BME280;10722;51.910;8.352;2022-07-24T04:58:29;101249.41;;;16.63;93.46
21129;BME280;10722;51.910;8.352;2022-07-24T05:01:15;101244.22;;;16.70;93.18
21129;BME280;10722;51.910;8.352;2022-07-24T05:04:00;101231.13;;;16.61;92.35
21129;BME280;10722;51.910;8.352;2022-07-24T05:06:46;101238.09;;;16.68;92.36
21129;BME280;10722;51.910;8.352;2022-07-24T05:09:31;101239.84;;;16.75;92.68
21129;BME280;10722;51.910;8.352;2022-07-24T05:12:17;101240.75;;;16.93;92.15
21129;BME280;10722;51.910;8.352;2022-07-24T05:15:03;101240.75;;;16.93;91.27
21129;BME280;10722;51.910;8.352;2022-07-24T05:17:49;101238.16;;;16.87;91.14
21129;BME280;10722;51.910;8.352;2022-07-24T05:20:36;101255.56;;;16.85;91.98
21129;BME280;10722;51.910;8.352;2022-07-24T05:23:21;101242.47;;;16.89;91.75
21129;BME280;10722;51.910;8.352;2022-07-24T05:26:06;101245.09;;;17.00;91.75
21129;BME280;10722;51.910;8.352;2022-07-24T05:28:51;101240.72;;;17.00;91.20
21129;BME280;10722;51.910;8.352;2022-07-24T05:31:37;101241.63;;;17.01;90.26
21129;BME280;10722;51.910;8.352;2022-07-24T05:34:25;101241.59;;;17.09;90.50
21129;BME280;10722;51.910;8.352;2022-07-24T05:37:10;101225.06;;;17.05;90.42
21129;BME280;10722;51.910;8.352;2022-07-24T05:39:56;101238.13;;;17.02;90.75
21129;BME280;10722;51.910;8.352;2022-07-24T05:42:42;101232.03;;;17.09;91.24
21129;BME280;10722;51.910;8.352;2022-07-24T05:45:27;101232.00;;;17.20;90.98
21129;BME280;10722;51.910;8.352;2022-07-24T05:48:12;101235.47;;;17.31;90.70
21129;BME280;10722;51.910;8.352;2022-07-24T05:50:58;101227.66;;;17.27;90.22
21129;BME280;10722;51.910;8.352;2022-07-24T05:53:43;101231.06;;;17.42;90.62
21129;BME280;10722;51.910;8.352;2022-07-24T05:56:29;101220.63;;;17.44;88.76
21129;BME280;10722;51.910;8.352;2022-07-24T05:59:14;101227.63;;;17.40;89.41
21129;BME280;10722;51.910;8.352;2022-07-24T06:01:59;101231.06;;;17.53;90.21
21129;BME280;10722;51.910;8.352;2022-07-24T06:04:44;101219.69;;;17.59;89.22
21129;BME280;10722;51.910;8.352;2022-07-24T06:07:30;101232.75;;;17.66;89.68
21129;BME280;10722;51.910;8.352;2022-07-24T06:10:15;101222.28;;;17.74;90.00
21129;BME280;10722;51.910;8.352;2022-07-24T06:13:01;101224.88;;;17.76;89.22
21129;BME280;10722;51.910;8.352;2022-07-24T06:15:46;101224.00;;;17.77;89.42
21129;BME280;10722;51.910;8.352;2022-07-24T06:18:32;101228.34;;;17.88;90.37
21129;BME280;10722;51.910;8.352;2022-07-24T06:21:17;101222.19;;;18.00;90.19
21129;BME280;10722;51.910;8.352;2022-07-24T06:24:03;101214.28;;;18.11;89.22
21129;BME280;10722;51.910;8.352;2022-07-24T06:26:48;101211.59;;;18.20;89.22
21129;BME280;10722;51.910;8.352;2022-07-24T06:29:53;101217.63;;;18.30;88.20
21129;BME280;10722;51.910;8.352;2022-07-24T06:32:40;101212.38;;;18.36;87.80
21129;BME280;10722;51.910;8.352;2022-07-24T06:35:27;101200.91;;;18.49;86.74
21129;BME280;10722;51.910;8.352;2022-07-24T06:38:13;101213.03;;;18.61;87.46
21129;BME280;10722;51.910;8.352;2022-07-24T06:40:58;101192.91;;;18.66;84.88
21129;BME280;10722;51.910;8.352;2022-07-24T06:43:43;101199.81;;;18.79;85.54
21129;BME280;10722;51.910;8.352;2022-07-24T06:46:29;101184.91;;;18.86;84.21
21129;BME280;10722;51.910;8.352;2022-07-24T06:49:14;101195.25;;;19.00;84.77
21129;BME280;10722;51.910;8.352;2022-07-24T06:52:00;101194.25;;;19.13;84.03
21129;BME280;10722;51.910;8.352;2022-07-24T06:54:45;101194.94;;;19.31;84.11
21129;BME280;10722;51.910;8.352;2022-07-24T06:57:30;101183.47;;;19.41;82.53
21129;BME280;10722;51.910;8.352;2022-07-24T07:00:16;101191.19;;;19.55;82.09
21129;BME280;10722;51.910;8.352;2022-07-24T07:03:01;101202.38;;;19.70;82.69
21129;BME280;10722;51.910;8.352;2022-07-24T07:05:47;101175.13;;;19.81;80.48
21129;BME280;10722;51.910;8.352;2022-07-24T07:08:32;101191.47;;;20.01;81.18
21129;BME280;10722;51.910;8.352;2022-07-24T07:11:17;101180.69;;;20.20;80.13
21129;BME280;10722;51.910;8.352;2022-07-24T07:14:03;101156.84;;;20.33;77.29
21129;BME280;10722;51.910;8.352;2022-07-24T07:16:48;101157.34;;;20.57;75.95
21129;BME280;10722;51.910;8.352;2022-07-24T07:19:33;101146.44;;;20.80;73.68
21129;BME280;10722;51.910;8.352;2022-07-24T07:22:19;101156.19;;;21.21;73.63
21129;BME280;10722;51.910;8.352;2022-07-24T07:25:05;101145.66;;;21.65;72.29
21129;BME280;10722;51.910;8.352;2022-07-24T07:27:50;101136.97;;;22.00;71.07
21129;BME280;10722;51.910;8.352;2022-07-24T07:30:35;101107.91;;;22.41;68.99
21129;BME280;10722;51.910;8.352;2022-07-24T07:33:21;101120.63;;;22.59;68.63
21129;BME280;10722;51.910;8.352;2022-07-24T07:36:07;101114.78;;;23.13;67.00
21129;BME280;10722;51.910;8.352;2022-07-24T07:38:52;101102.13;;;23.24;65.22
21129;BME280;10722;51.910;8.352;2022-07-24T07:41:37;101122.34;;;23.25;66.41
21129;BME280;10722;51.910;8.352;2022-07-24T07:44:23;101126.50;;;23.64;66.03
21129;BME280;10722;51.910;8.352;2022-07-24T07:47:07;101100.00;;;23.95;64.22
21129;BME280;10722;51.910;8.352;2022-07-24T07:49:53;101117.22;;;24.08;64.68
21129;BME280;10722;51.910;8.352;2022-07-24T07:52:38;101111.88;;;24.63;63.59
21129;BME280;10722;51.910;8.352;2022-07-24T07:55:23;101080.19;;;24.87;61.68
21129;BME280;10722;51.910;8.352;2022-07-24T07:58:08;101095.22;;;24.61;61.21
21129;BME280;10722;51.910;8.352;2022-07-24T08:00:54;101079.59;;;25.02;60.16
21129;BME280;10722;51.910;8.352;2022-07-24T08:03:39;101083.56;;;25.15;59.75
21129;BME280;10722;51.910;8.352;2022-07-24T08:06:25;101098.97;;;24.79;60.93
21129;BME280;10722;51.910;8.352;2022-07-24T08:09:10;101097.00;;;25.56;60.11
21129;BME280;10722;51.910;8.352;2022-07-24T08:11:55;101048.63;;;26.17;56.20
21129;BME280;10722;51.910;8.352;2022-07-24T08:14:41;101077.63;;;25.32;58.74
21129;BME280;10722;51.910;8.352;2022-07-24T08:17:26;101083.63;;;25.37;58.56
21129;BME280;10722;51.910;8.352;2022-07-24T08:20:11;101067.94;;;25.55;57.56
21129;BME280;10722;51.910;8.352;2022-07-24T08:22:57;101085.56;;;26.22;57.66
21129;BME280;10722;51.910;8.352;2022-07-24T08:25:43;101090.50;;;26.09;57.63
21129;BME280;10722;51.910;8.352;2022-07-24T08:28:28;101072.34;;;25.76;57.66
21129;BME280;10722;51.910;8.352;2022-07-24T08:31:13;101078.56;;;27.21;56.58
21129;BME280;10722;51.910;8.352;2022-07-24T08:33:59;101036.66;;;26.89;54.15
21129;BME280;10722;51.910;8.352;2022-07-24T08:36:44;101045.34;;;27.11;53.79
21129;BME280;10722;51.910;8.352;2022-07-24T08:39:29;101040.31;;;27.62;52.76
21129;BME280;10722;51.910;8.352;2022-07-24T08:42:14;101049.50;;;27.37;53.65
21129;BME280;10722;51.910;8.352;2022-07-24T08:45:00;101052.25;;;27.15;53.78
21129;BME280;10722;51.910;8.352;2022-07-24T08:47:45;101071.03;;;26.92;54.81
21129;BME280;10722;51.910;8.352;2022-07-24T08:50:40;101052.88;;;27.96;52.77
21129;BME280;10722;51.910;8.352;2022-07-24T08:53:25;101057.94;;;28.18;52.56
21129;BME280;10722;51.910;8.352;2022-07-24T08:56:11;101048.38;;;27.03;52.76
21129;BME280;10722;51.910;8.352;2022-07-24T08:58:56;101062.44;;;26.87;53.78
21129;BME280;10722;51.910;8.352;2022-07-24T09:01:44;101058.47;;;27.90;52.08
21129;BME280;10722;51.910;8.352;2022-07-24T09:07:21;101047.25;;;28.20;50.84
21129;BME280;10722;51.910;8.352;2022-07-24T09:10:09;101043.09;;;27.78;50.74
21129;BME280;10722;51.910;8.352;2022-07-24T09:12:54;101040.81;;;28.24;49.49
21129;BME280;10722;51.910;8.352;2022-07-24T09:15:47;101055.97;;;28.04;51.19
21129;BME280;10722;51.910;8.352;2022-07-24T09:18:34;101044.59;;;28.02;50.87
21129;BME280;10722;51.910;8.352;2022-07-24T09:21:19;101022.09;;;28.60;48.58
21129;BME280;10722;51.910;8.352;2022-07-24T09:24:12;101011.56;;;29.39;47.56
21129;BME280;10722;51.910;8.352;2022-07-24T09:26:57;101030.31;;;28.89;48.80
21129;BME280;10722;51.910;8.352;2022-07-24T09:29:43;101032.22;;;29.02;48.83
21129;BME280;10722;51.910;8.352;2022-07-24T09:32:28;101044.69;;;29.02;49.07
21129;BME280;10722;51.910;8.352;2022-07-24T09:35:14;101010.78;;;29.53;46.84
21129;BME280;10722;51.910;8.352;2022-07-24T09:38:01;101021.41;;;29.23;46.98
21129;BME280;10722;51.910;8.352;2022-07-24T09:40:50;101032.22;;;28.01;50.07
21129;BME280;10722;51.910;8.352;2022-07-24T09:43:35;101064.75;;;27.89;51.27
21129;BME280;10722;51.910;8.352;2022-07-24T09:46:22;101002.50;;;28.45;47.42
21129;BME280;10722;51.910;8.352;2022-07-24T09:49:18;101006.16;;;29.25;46.00
21129;BME280;10722;51.910;8.352;2022-07-24T09:52:17;100984.59;;;29.45;45.34
21129;BME280;10722;51.910;8.352;2022-07-24T09:55:02;101035.28;;;29.76;46.96
21129;BME280;10722;51.910;8.352;2022-07-24T09:57:48;100999.63;;;28.66;46.80
21129;BME280;10722;51.910;8.352;2022-07-24T10:00:34;101009.38;;;27.97;48.50
21129;BME280;10722;51.910;8.352;2022-07-24T10:03:23;101031.59;;;27.41;50.04
21129;BME280;10722;51.910;8.352;2022-07-24T10:06:11;101009.19;;;27.09;49.37
21129;BME280;10722;51.910;8.352;2022-07-24T10:08:57;101027.56;;;26.75;50.50
21129;BME280;10722;51.910;8.352;2022-07-24T10:11:44;101032.06;;;27.11;50.57
21129;BME280;10722;51.910;8.352;2022-07-24T10:14:29;101015.63;;;27.23;49.68
21129;BME280;10722;51.910;8.352;2022-07-24T10:17:16;101038.00;;;27.92;49.60
21129;BME280;10722;51.910;8.352;2022-07-24T10:20:09;101009.91;;;28.21;47.58
21129;BME280;10722;51.910;8.352;2022-07-24T10:23:25;101019.09;;;28.99;47.15
21129;BME280;10722;51.910;8.352;2022-07-24T10:26:16;100994.63;;;29.72;45.38
21129;BME280;10722;51.910;8.352;2022-07-24T10:29:10;100985.69;;;29.25;45.55
21129;BME280;10722;51.910;8.352;2022-07-24T10:31:56;100993.66;;;28.45;46.66
21129;BME280;10722;51.910;8.352;2022-07-24T10:34:49;100988.31;;;30.48;43.66
21129;BME280;10722;51.910;8.352;2022-07-24T10:40:51;100966.31;;;30.87;42.63
21129;BME280;10722;51.910;8.352;2022-07-24T10:43:36;100960.59;;;30.36;42.84
21129;BME280;10722;51.910;8.352;2022-07-24T10:46:22;100974.31;;;31.29;42.70
21129;BME280;10722;51.910;8.352;2022-07-24T10:52:27;100975.94;;;30.47;43.34
21129;BME280;10722;51.910;8.352;2022-07-24T10:55:23;100947.22;;;30.79;41.93
21129;BME280;10722;51.910;8.352;2022-07-24T10:58:18;100973.63;;;30.26;43.63
21129;BME280;10722;51.910;8.352;2022-07-24T11:01:30;100946.09;;;31.91;39.38
21129;BME280;10722;51.910;8.352;2022-07-24T11:07:11;100923.75;;;31.53;40.22
21129;BME280;10722;51.910;8.352;2022-07-24T11:10:04;100945.09;;;31.80;40.74
21129;BME280;10722;51.910;8.352;2022-07-24T11:12:50;100936.44;;;33.51;37.66
21129;BME280;10722;51.910;8.352;2022-07-24T11:21:43;100923.41;;;31.17;40.95
21129;BME280;10722;51.910;8.352;2022-07-24T11:24:28;100931.22;;;30.50;41.94
21129;BME280;10722;51.910;8.352;2022-07-24T11:27:16;100930.69;;;32.96;38.23
21129;BME280;10722;51.910;8.352;2022-07-24T11:30:02;100938.00;;;32.19;39.80
21129;BME280;10722;51.910;8.352;2022-07-24T11:32:48;100934.13;;;32.61;39.16
21129;BME280;10722;51.910;8.352;2022-07-24T11:35:36;100914.16;;;33.74;36.60
21129;BME280;10722;51.910;8.352;2022-07-24T11:38:28;100916.22;;;33.46;37.59
21129;BME280;10722;51.910;8.352;2022-07-24T11:41:13;100916.09;;;33.72;37.00
21129;BME280;10722;51.910;8.352;2022-07-24T11:43:59;100896.09;;;33.65;36.19
21129;BME280;10722;51.910;8.352;2022-07-24T11:46:44;100876.06;;;33.58;35.36
21129;BME280;10722;51.910;8.352;2022-07-24T11:49:29;100894.28;;;32.31;38.05
21129;BME280;10722;51.910;8.352;2022-07-24T11:55:14;100913.63;;;33.69;37.26
21129;BME280;10722;51.910;8.352;2022-07-24T11:58:01;100914.75;;;34.24;36.52
21129;BME280;10722;51.910;8.352;2022-07-24T12:01:19;100899.63;;;33.41;37.05
21129;BME280;10722;51.910;8.352;2022-07-24T12:04:04;100875.72;;;32.90;37.17
21129;BME280;10722;51.910;8.352;2022-07-24T12:06:50;100886.16;;;32.82;37.52
21129;BME280;10722;51.910;8.352;2022-07-24T12:12:38;100928.66;;;33.47;38.44
21129;BME280;10722;51.910;8.352;2022-07-24T12:15:25;100881.38;;;34.61;35.63
21129;BME280;10722;51.910;8.352;2022-07-24T12:18:10;100879.41;;;33.48;37.71
21129;BME280;10722;51.910;8.352;2022-07-24T12:21:03;100882.06;;;32.52;38.75
21129;BME280;10722;51.910;8.352;2022-07-24T12:23:49;100869.03;;;32.09;38.31
21129;BME280;10722;51.910;8.352;2022-07-24T12:26:51;100903.13;;;32.70;39.28
21129;BME280;10722;51.910;8.352;2022-07-24T12:29:42;100891.41;;;34.25;35.64
21129;BME280;10722;51.910;8.352;2022-07-24T12:32:28;100867.31;;;33.78;35.97
21129;BME280;10722;51.910;8.352;2022-07-24T12:35:13;100838.34;;;33.13;35.82
21129;BME280;10722;51.910;8.352;2022-07-24T12:38:01;100866.69;;;33.04;37.41
21129;BME280;10722;51.910;8.352;2022-07-24T12:40:47;100846.81;;;33.66;35.71
21129;BME280;10722;51.910;8.352;2022-07-24T12:43:33;100830.47;;;33.69;34.51
21129;BME280;10722;51.910;8.352;2022-07-24T12:49:18;100868.97;;;35.03;34.73
21129;BME280;10722;51.910;8.352;2022-07-24T12:52:03;100840.19;;;34.83;33.94
21129;BME280;10722;51.910;8.352;2022-07-24T12:54:49;100843.59;;;34.85;33.91
21129;BME280;10722;51.910;8.352;2022-07-24T12:57:34;100871.03;;;34.11;36.55
21129;BME280;10722;51.910;8.352;2022-07-24T13:00:19;100847.63;;;34.24;35.46
21129;BME280;10722;51.910;8.352;2022-07-24T13:03:05;100831.19;;;33.24;36.35
21129;BME280;10722;51.910;8.352;2022-07-24T13:05:55;100839.38;;;33.69;35.83
21129;BME280;10722;51.910;8.352;2022-07-24T13:08:40;100832.44;;;33.89;35.08
21129;BME280;10722;51.910;8.352;2022-07-24T13:11:25;100850.81;;;34.84;34.28
21129;BME280;10722;51.910;8.352;2022-07-24T13:14:11;100810.63;;;34.17;34.69
21129;BME280;10722;51.910;8.352;2022-07-24T13:17:15;100810.63;;;34.17;34.58
21129;BME280;10722;51.910;8.352;2022-07-24T13:20:01;100817.31;;;34.00;34.37
21129;BME280;10722;51.910;8.352;2022-07-24T13:22:46;100818.56;;;35.16;33.59
21129;BME280;10722;51.910;8.352;2022-07-24T13:25:32;100850.09;;;36.29;33.66
21129;BME280;10722;51.910;8.352;2022-07-24T13:28:21;100799.41;;;34.11;34.87
21129;BME280;10722;51.910;8.352;2022-07-24T13:31:07;100780.84;;;32.45;37.24
21129;BME280;10722;51.910;8.352;2022-07-24T13:33:52;100807.50;;;33.42;36.66
21129;BME280;10722;51.910;8.352;2022-07-24T13:36:38;100783.09;;;32.38;37.24
21129;BME280;10722;51.910;8.352;2022-07-24T13:39:24;100799.00;;;32.15;37.85
21129;BME280;10722;51.910;8.352;2022-07-24T13:42:10;100791.31;;;31.34;38.61
21129;BME280;10722;51.910;8.352;2022-07-24T13:44:55;100803.00;;;30.37;41.04
21129;BME280;10722;51.910;8.352;2022-07-24T13:47:40;100782.94;;;31.26;38.72
21129;BME280;10722;51.910;8.352;2022-07-24T13:50:26;100781.47;;;31.47;38.31
21129;BME280;10722;51.910;8.352;2022-07-24T13:53:11;100778.41;;;30.47;41.03
21129;BME280;10722;51.910;8.352;2022-07-24T13:55:56;100801.13;;;30.11;42.12
21129;BME280;10722;51.910;8.352;2022-07-24T13:58:41;100809.38;;;30.21;42.46
21129;BME280;10722;51.910;8.352;2022-07-24T14:01:27;100794.03;;;30.53;41.65
21129;BME280;10722;51.910;8.352;2022-07-24T14:04:18;100786.13;;;30.78;40.25
21129;BME280;10722;51.910;8.352;2022-07-24T14:07:14;100747.09;;;29.93;39.70
21129;BME280;10722;51.910;8.352;2022-07-24T14:09:59;100761.59;;;29.89;40.47
21129;BME280;10722;51.910;8.352;2022-07-24T14:12:44;100781.09;;;30.04;41.54
21129;BME280;10722;51.910;8.352;2022-07-24T14:15:30;100752.91;;;30.28;39.91
21129;BME280;10722;51.910;8.352;2022-07-24T14:18:15;100740.53;;;30.27;39.10
21129;BME280;10722;51.910;8.352;2022-07-24T14:21:00;100779.59;;;30.00;41.37
21129;BME280;10722;51.910;8.352;2022-07-24T14:23:46;100787.31;;;30.19;41.46
21129;BME280;10722;51.910;8.352;2022-07-24T14:26:31;100766.47;;;29.97;40.84
21129;BME280;10722;51.910;8.352;2022-07-24T14:29:17;100760.34;;;29.52;42.07
21129;BME280;10722;51.910;8.352;2022-07-24T14:32:02;100779.06;;;29.36;42.98
21129;BME280;10722;51.910;8.352;2022-07-24T14:34:47;100761.63;;;29.44;41.91
21129;BME280;10722;51.910;8.352;2022-07-24T14:37:34;100788.53;;;29.70;43.53
21129;BME280;10722;51.910;8.352;2022-07-24T14:40:20;100798.28;;;29.85;44.29
21129;BME280;10722;51.910;8.352;2022-07-24T14:43:05;100782.28;;;29.85;43.67
21129;BME280;10722;51.910;8.352;2022-07-24T14:45:51;100751.59;;;29.78;42.32
21129;BME280;10722;51.910;8.352;2022-07-24T14:48:36;100739.94;;;29.36;41.98
21129;BME280;10722;51.910;8.352;2022-07-24T14:51:21;100740.50;;;29.27;42.43
21129;BME280;10722;51.910;8.352;2022-07-24T14:54:08;100754.81;;;29.40;42.66
21129;BME280;10722;51.910;8.352;2022-07-24T14:56:55;100729.84;;;29.41;41.95